sensor_id;sensor_type;location;lat;lon;timestamp;P1;durP1;ratioP1;P2;durP2;ratioP2
60730;SDS011;46580;52.114;11.674;2024-02-04T00:00:26;6.43;;;2.10;;
60730;SDS011;46580;52.114;11.674;2024-02-04T00:02:52;9.40;;;2.50;;
60730;SDS011;46580;52.114;11.674;2024-02-04T00:05:17;7.10;;;2.40;;
60730;SDS011;46580;52.114;11.674;2024-02-04T00:07:44;5.07;;;2.60;;
60730;SDS011;46580;52.114;11.674;2024-02-04T00:10:10;7.10;;;2.70;;
60730;SDS011;46580;52.114;11.674;2024-02-04T00:12:36;5.33;;;2.27;;
60730;SDS011;46580;52.114;11.674;2024-02-04T00:15:01;6.40;;;2.67;;
60730;SDS011;46580;52.114;11.674;2024-02-04T00:17:29;2.43;;;2.20;;
60730;SDS011;46580;52.114;11.674;2024-02-04T00:19:56;5.53;;;2.40;;
60730;SDS011;46580;52.114;11.674;2024-02-04T00:22:22;4.77;;;2.37;;
60730;SDS011;46580;52.114;11.674;2024-02-04T00:24:47;6.47;;;2.87;;
60730;SDS011;46580;52.114;11.674;2024-02-04T00:27:13;7.80;;;2.73;;
60730;SDS011;46580;52.114;11.674;2024-02-04T00:29:38;5.57;;;2.47;;
60730;SDS011;46580;52.114;11.674;2024-02-04T00:32:04;7.83;;;2.63;;
60730;SDS011;46580;52.114;11.674;2024-02-04T00:34:29;8.47;;;2.33;;
60730;SDS011;46580;52.114;11.674;2024-02-04T00:36:55;4.70;;;2.57;;
60730;SDS011;46580;52.114;11.674;2024-02-04T00:39:20;3.97;;;2.87;;
60730;SDS011;46580;52.114;11.674;2024-02-04T00:41:46;3.93;;;2.63;;
60730;SDS011;46580;52.114;11.674;2024-02-04T00:44:11;4.10;;;2.23;;
60730;SDS011;46580;52.114;11.674;2024-02-04T00:46:37;5.60;;;2.53;;
60730;SDS011;46580;52.114;11.674;2024-02-04T00:49:03;4.50;;;2.80;;
60730;SDS011;46580;52.114;11.674;2024-02-04T00:51:28;6.97;;;2.90;;
60730;SDS011;46580;52.114;11.674;2024-02-04T00:53:54;3.97;;;2.73;;
60730;SDS011;46580;52.114;11.674;2024-02-04T00:56:19;6.63;;;2.97;;
60730;SDS011;46580;52.114;11.674;2024-02-04T00:58:44;5.57;;;2.23;;
60730;SDS011;46580;52.114;11.674;2024-02-04T01:01:10;5.23;;;2.10;;
60730;SDS011;46580;52.114;11.674;2024-02-04T01:03:36;2.83;;;2.07;;
60730;SDS011;46580;52.114;11.674;2024-02-04T01:06:02;4.37;;;2.37;;
60730;SDS011;46580;52.114;11.674;2024-02-04T01:08:28;3.37;;;1.93;;
60730;SDS011;46580;52.114;11.674;2024-02-04T01:10:55;7.30;;;2.40;;
60730;SDS011;46580;52.114;11.674;2024-02-04T01:13:22;6.77;;;2.37;;
60730;SDS011;46580;52.114;11.674;2024-02-04T01:15:49;3.70;;;2.23;;
60730;SDS011;46580;52.114;11.674;2024-02-04T01:18:16;4.73;;;2.00;;
60730;SDS011;46580;52.114;11.674;2024-02-04T01:20:41;7.03;;;2.27;;
60730;SDS011;46580;52.114;11.674;2024-02-04T01:23:08;5.20;;;2.00;;
60730;SDS011;46580;52.114;11.674;2024-02-04T01:25:34;5.40;;;2.37;;
60730;SDS011;46580;52.114;11.674;2024-02-04T01:28:00;6.47;;;1.97;;
60730;SDS011;46580;52.114;11.674;2024-02-04T01:30:26;3.83;;;1.80;;
60730;SDS011;46580;52.114;11.674;2024-02-04T01:32:55;4.57;;;2.33;;
60730;SDS011;46580;52.114;11.674;2024-02-04T01:35:20;5.90;;;2.13;;
60730;SDS011;46580;52.114;11.674;2024-02-04T01:37:46;3.37;;;1.80;;
60730;SDS011;46580;52.114;11.674;2024-02-04T01:40:13;6.03;;;2.33;;
60730;SDS011;46580;52.114;11.674;2024-02-04T01:42:40;10.27;;;2.10;;
60730;SDS011;46580;52.114;11.674;2024-02-04T01:45:06;3.83;;;2.33;;
60730;SDS011;46580;52.114;11.674;2024-02-04T01:47:32;5.10;;;2.17;;
60730;SDS011;46580;52.114;11.674;2024-02-04T01:49:58;4.33;;;2.13;;
60730;SDS011;46580;52.114;11.674;2024-02-04T01:52:24;7.00;;;3.77;;
60730;SDS011;46580;52.114;11.674;2024-02-04T01:54:50;6.20;;;2.53;;
60730;SDS011;46580;52.114;11.674;2024-02-04T01:57:17;5.13;;;2.70;;
60730;SDS011;46580;52.114;11.674;2024-02-04T01:59:43;4.17;;;2.10;;
60730;SDS011;46580;52.114;11.674;2024-02-04T02:02:09;7.70;;;3.27;;
60730;SDS011;46580;52.114;11.674;2024-02-04T02:04:35;3.07;;;2.00;;
60730;SDS011;46580;52.114;11.674;2024-02-04T02:07:00;4.67;;;2.40;;
60730;SDS011;46580;52.114;11.674;2024-02-04T02:09:28;6.83;;;2.63;;
60730;SDS011;46580;52.114;11.674;2024-02-04T02:11:59;4.33;;;2.97;;
60730;SDS011;46580;52.114;11.674;2024-02-04T02:14:33;7.43;;;2.20;;
60730;SDS011;46580;52.114;11.674;2024-02-04T02:17:03;3.00;;;2.17;;
60730;SDS011;46580;52.114;11.674;2024-02-04T02:22:45;8.63;;;2.60;;
60730;SDS011;46580;52.114;11.674;2024-02-04T02:25:14;2.70;;;2.20;;
60730;SDS011;46580;52.114;11.674;2024-02-04T02:27:48;3.37;;;1.67;;
60730;SDS011;46580;52.114;11.674;2024-02-04T02:30:16;4.93;;;2.17;;
60730;SDS011;46580;52.114;11.674;2024-02-04T02:32:45;8.87;;;2.33;;
60730;SDS011;46580;52.114;11.674;2024-02-04T02:35:14;3.10;;;2.10;;
60730;SDS011;46580;52.114;11.674;2024-02-04T02:37:43;5.17;;;2.33;;
60730;SDS011;46580;52.114;11.674;2024-02-04T02:40:19;5.17;;;2.07;;
60730;SDS011;46580;52.114;11.674;2024-02-04T02:42:51;4.17;;;2.30;;
60730;SDS011;46580;52.114;11.674;2024-02-04T02:45:19;5.93;;;2.20;;
60730;SDS011;46580;52.114;11.674;2024-02-04T02:47:48;5.03;;;2.13;;
60730;SDS011;46580;52.114;11.674;2024-02-04T02:50:15;5.03;;;2.60;;
60730;SDS011;46580;52.114;11.674;2024-02-04T02:52:42;7.03;;;1.97;;
60730;SDS011;46580;52.114;11.674;2024-02-04T02:55:08;2.87;;;2.17;;
60730;SDS011;46580;52.114;11.674;2024-02-04T02:57:34;3.73;;;1.90;;
60730;SDS011;46580;52.114;11.674;2024-02-04T03:00:00;8.73;;;2.47;;
60730;SDS011;46580;52.114;11.674;2024-02-04T03:02:25;3.90;;;2.20;;
60730;SDS011;46580;52.114;11.674;2024-02-04T03:04:52;3.40;;;2.57;;
60730;SDS011;46580;52.114;11.674;2024-02-04T03:07:18;3.50;;;3.00;;
60730;SDS011;46580;52.114;11.674;2024-02-04T03:09:43;8.67;;;2.70;;
60730;SDS011;46580;52.114;11.674;2024-02-04T03:12:10;6.23;;;2.43;;
60730;SDS011;46580;52.114;11.674;2024-02-04T03:14:35;2.70;;;1.93;;
60730;SDS011;46580;52.114;11.674;2024-02-04T03:17:01;4.57;;;1.90;;
60730;SDS011;46580;52.114;11.674;2024-02-04T03:19:28;7.57;;;2.37;;
60730;SDS011;46580;52.114;11.674;2024-02-04T03:21:53;5.60;;;2.00;;
60730;SDS011;46580;52.114;11.674;2024-02-04T03:24:20;4.77;;;2.30;;
60730;SDS011;46580;52.114;11.674;2024-02-04T03:26:45;6.03;;;2.70;;
60730;SDS011;46580;52.114;11.674;2024-02-04T03:29:12;5.47;;;1.73;;
60730;SDS011;46580;52.114;11.674;2024-02-04T03:31:37;5.20;;;1.87;;
60730;SDS011;46580;52.114;11.674;2024-02-04T03:34:04;6.67;;;2.50;;
60730;SDS011;46580;52.114;11.674;2024-02-04T03:36:30;4.40;;;2.60;;
60730;SDS011;46580;52.114;11.674;2024-02-04T03:38:55;3.83;;;1.87;;
60730;SDS011;46580;52.114;11.674;2024-02-04T03:41:22;4.27;;;1.90;;
60730;SDS011;46580;52.114;11.674;2024-02-04T03:43:48;8.40;;;3.03;;
60730;SDS011;46580;52.114;11.674;2024-02-04T03:46:15;5.40;;;2.70;;
60730;SDS011;46580;52.114;11.674;2024-02-04T03:48:41;5.43;;;2.70;;
60730;SDS011;46580;52.114;11.674;2024-02-04T03:51:06;4.00;;;2.57;;
60730;SDS011;46580;52.114;11.674;2024-02-04T03:53:32;3.57;;;2.50;;
60730;SDS011;46580;52.114;11.674;2024-02-04T03:55:58;7.80;;;2.53;;
60730;SDS011;46580;52.114;11.674;2024-02-04T03:58:24;5.77;;;2.50;;
60730;SDS011;46580;52.114;11.674;2024-02-04T04:00:56;5.63;;;2.37;;
60730;SDS011;46580;52.114;11.674;2024-02-04T04:03:22;5.60;;;1.93;;
60730;SDS011;46580;52.114;11.674;2024-02-04T04:05:48;4.73;;;2.27;;
60730;SDS011;46580;52.114;11.674;2024-02-04T04:08:15;3.63;;;2.13;;
60730;SDS011;46580;52.114;11.674;2024-02-04T04:10:41;3.27;;;2.07;;
60730;SDS011;46580;52.114;11.674;2024-02-04T04:13:07;4.87;;;2.40;;
60730;SDS011;46580;52.114;11.674;2024-02-04T04:15:34;6.10;;;2.73;;
60730;SDS011;46580;52.114;11.674;2024-02-04T04:18:00;3.30;;;1.83;;
60730;SDS011;46580;52.114;11.674;2024-02-04T04:20:26;6.80;;;1.90;;
60730;SDS011;46580;52.114;11.674;2024-02-04T04:22:52;3.97;;;2.27;;
60730;SDS011;46580;52.114;11.674;2024-02-04T04:25:18;5.47;;;2.60;;
60730;SDS011;46580;52.114;11.674;2024-02-04T04:27:44;6.60;;;2.50;;
60730;SDS011;46580;52.114;11.674;2024-02-04T04:30:10;7.77;;;1.73;;
60730;SDS011;46580;52.114;11.674;2024-02-04T04:32:36;8.00;;;3.40;;
60730;SDS011;46580;52.114;11.674;2024-02-04T04:35:02;4.20;;;2.43;;
60730;SDS011;46580;52.114;11.674;2024-02-04T04:37:28;5.53;;;2.40;;
60730;SDS011;46580;52.114;11.674;2024-02-04T04:39:53;6.00;;;2.30;;
60730;SDS011;46580;52.114;11.674;2024-02-04T04:42:18;4.57;;;2.73;;
60730;SDS011;46580;52.114;11.674;2024-02-04T04:44:44;2.60;;;2.07;;
60730;SDS011;46580;52.114;11.674;2024-02-04T04:47:09;7.17;;;2.60;;
60730;SDS011;46580;52.114;11.674;2024-02-04T04:49:36;3.23;;;1.87;;
60730;SDS011;46580;52.114;11.674;2024-02-04T04:52:01;8.57;;;2.50;;
60730;SDS011;46580;52.114;11.674;2024-02-04T04:54:28;2.53;;;1.57;;
60730;SDS011;46580;52.114;11.674;2024-02-04T04:56:54;4.37;;;2.27;;
60730;SDS011;46580;52.114;11.674;2024-02-04T04:59:20;4.93;;;2.20;;
60730;SDS011;46580;52.114;11.674;2024-02-04T05:01:50;3.30;;;2.03;;
60730;SDS011;46580;52.114;11.674;2024-02-04T05:04:16;4.03;;;3.10;;
60730;SDS011;46580;52.114;11.674;2024-02-04T05:06:43;2.87;;;2.27;;
60730;SDS011;46580;52.114;11.674;2024-02-04T05:09:10;4.17;;;2.43;;
60730;SDS011;46580;52.114;11.674;2024-02-04T05:11:36;3.57;;;2.27;;
60730;SDS011;46580;52.114;11.674;2024-02-04T05:14:01;4.70;;;2.80;;
60730;SDS011;46580;52.114;11.674;2024-02-04T05:16:27;3.70;;;2.30;;
60730;SDS011;46580;52.114;11.674;2024-02-04T05:18:53;7.03;;;3.13;;
60730;SDS011;46580;52.114;11.674;2024-02-04T05:21:18;5.20;;;2.73;;
60730;SDS011;46580;52.114;11.674;2024-02-04T05:23:43;4.93;;;3.37;;
60730;SDS011;46580;52.114;11.674;2024-02-04T05:26:10;7.40;;;3.70;;
60730;SDS011;46580;52.114;11.674;2024-02-04T05:28:36;4.67;;;2.73;;
60730;SDS011;46580;52.114;11.674;2024-02-04T05:31:02;8.47;;;3.60;;
60730;SDS011;46580;52.114;11.674;2024-02-04T05:33:28;9.13;;;3.57;;
60730;SDS011;46580;52.114;11.674;2024-02-04T05:35:54;6.87;;;3.13;;
60730;SDS011;46580;52.114;11.674;2024-02-04T05:38:23;4.53;;;3.10;;
60730;SDS011;46580;52.114;11.674;2024-02-04T05:40:49;7.30;;;3.97;;
60730;SDS011;46580;52.114;11.674;2024-02-04T05:43:14;7.00;;;4.03;;
60730;SDS011;46580;52.114;11.674;2024-02-04T05:45:41;4.50;;;3.07;;
60730;SDS011;46580;52.114;11.674;2024-02-04T05:48:07;7.67;;;3.70;;
60730;SDS011;46580;52.114;11.674;2024-02-04T05:50:32;4.93;;;3.40;;
60730;SDS011;46580;52.114;11.674;2024-02-04T05:52:58;6.43;;;3.87;;
60730;SDS011;46580;52.114;11.674;2024-02-04T05:55:24;7.80;;;3.60;;
60730;SDS011;46580;52.114;11.674;2024-02-04T05:57:50;8.20;;;4.27;;
60730;SDS011;46580;52.114;11.674;2024-02-04T06:00:16;4.87;;;3.30;;
60730;SDS011;46580;52.114;11.674;2024-02-04T06:02:42;6.77;;;3.97;;
60730;SDS011;46580;52.114;11.674;2024-02-04T06:05:11;6.30;;;4.07;;
60730;SDS011;46580;52.114;11.674;2024-02-04T06:07:38;7.27;;;3.87;;
60730;SDS011;46580;52.114;11.674;2024-02-04T06:10:03;8.07;;;4.40;;
60730;SDS011;46580;52.114;11.674;2024-02-04T06:12:30;9.87;;;4.10;;
60730;SDS011;46580;52.114;11.674;2024-02-04T06:14:56;10.80;;;4.37;;
60730;SDS011;46580;52.114;11.674;2024-02-04T06:17:22;8.80;;;4.10;;
60730;SDS011;46580;52.114;11.674;2024-02-04T06:19:48;6.73;;;3.70;;
60730;SDS011;46580;52.114;11.674;2024-02-04T06:22:14;6.57;;;4.10;;
60730;SDS011;46580;52.114;11.674;2024-02-04T06:24:40;10.77;;;3.80;;
60730;SDS011;46580;52.114;11.674;2024-02-04T06:27:07;8.73;;;4.13;;
60730;SDS011;46580;52.114;11.674;2024-02-04T06:29:36;8.53;;;4.50;;
60730;SDS011;46580;52.114;11.674;2024-02-04T06:32:02;7.47;;;4.40;;
60730;SDS011;46580;52.114;11.674;2024-02-04T06:34:28;8.63;;;4.60;;
60730;SDS011;46580;52.114;11.674;2024-02-04T06:36:54;9.13;;;3.83;;
60730;SDS011;46580;52.114;11.674;2024-02-04T06:39:22;8.30;;;4.40;;
60730;SDS011;46580;52.114;11.674;2024-02-04T06:41:48;8.73;;;4.20;;
60730;SDS011;46580;52.114;11.674;2024-02-04T06:44:14;11.07;;;4.87;;
60730;SDS011;46580;52.114;11.674;2024-02-04T06:46:40;8.60;;;4.97;;
60730;SDS011;46580;52.114;11.674;2024-02-04T06:49:06;7.23;;;4.40;;
60730;SDS011;46580;52.114;11.674;2024-02-04T06:51:32;7.23;;;4.97;;
60730;SDS011;46580;52.114;11.674;2024-02-04T06:53:58;8.20;;;4.83;;
60730;SDS011;46580;52.114;11.674;2024-02-04T06:56:25;14.40;;;5.33;;
60730;SDS011;46580;52.114;11.674;2024-02-04T06:58:51;9.10;;;4.23;;
60730;SDS011;46580;52.114;11.674;2024-02-04T07:01:16;8.47;;;4.83;;
60730;SDS011;46580;52.114;11.674;2024-02-04T07:03:42;9.23;;;5.03;;
60730;SDS011;46580;52.114;11.674;2024-02-04T07:06:08;13.23;;;5.53;;
60730;SDS011;46580;52.114;11.674;2024-02-04T07:08:34;10.03;;;5.43;;
60730;SDS011;46580;52.114;11.674;2024-02-04T07:11:00;10.03;;;5.13;;
60730;SDS011;46580;52.114;11.674;2024-02-04T07:13:26;6.70;;;4.50;;
60730;SDS011;46580;52.114;11.674;2024-02-04T07:15:53;9.10;;;4.60;;
60730;SDS011;46580;52.114;11.674;2024-02-04T07:18:19;10.03;;;4.80;;
60730;SDS011;46580;52.114;11.674;2024-02-04T07:20:46;11.43;;;5.17;;
60730;SDS011;46580;52.114;11.674;2024-02-04T07:23:12;10.03;;;5.30;;
60730;SDS011;46580;52.114;11.674;2024-02-04T07:25:37;7.87;;;4.37;;
60730;SDS011;46580;52.114;11.674;2024-02-04T07:28:04;10.40;;;4.77;;
60730;SDS011;46580;52.114;11.674;2024-02-04T07:30:30;10.40;;;5.10;;
60730;SDS011;46580;52.114;11.674;2024-02-04T07:32:56;10.03;;;4.73;;
60730;SDS011;46580;52.114;11.674;2024-02-04T07:35:23;7.60;;;4.80;;
60730;SDS011;46580;52.114;11.674;2024-02-04T07:37:48;11.53;;;5.73;;
60730;SDS011;46580;52.114;11.674;2024-02-04T07:40:14;8.60;;;4.43;;
60730;SDS011;46580;52.114;11.674;2024-02-04T07:42:40;8.67;;;4.27;;
60730;SDS011;46580;52.114;11.674;2024-02-04T07:45:07;10.07;;;5.10;;
60730;SDS011;46580;52.114;11.674;2024-02-04T07:47:34;8.30;;;5.40;;
60730;SDS011;46580;52.114;11.674;2024-02-04T07:50:00;9.90;;;5.50;;
60730;SDS011;46580;52.114;11.674;2024-02-04T07:52:26;9.20;;;4.70;;
60730;SDS011;46580;52.114;11.674;2024-02-04T07:54:51;13.20;;;6.03;;
60730;SDS011;46580;52.114;11.674;2024-02-04T07:57:16;7.97;;;4.40;;
60730;SDS011;46580;52.114;11.674;2024-02-04T07:59:42;9.57;;;4.23;;
60730;SDS011;46580;52.114;11.674;2024-02-04T08:02:08;9.47;;;4.73;;
60730;SDS011;46580;52.114;11.674;2024-02-04T08:04:33;7.83;;;4.20;;
60730;SDS011;46580;52.114;11.674;2024-02-04T08:06:59;6.80;;;4.27;;
60730;SDS011;46580;52.114;11.674;2024-02-04T08:09:25;8.57;;;3.90;;
60730;SDS011;46580;52.114;11.674;2024-02-04T08:11:51;10.13;;;3.90;;
60730;SDS011;46580;52.114;11.674;2024-02-04T08:14:17;7.13;;;4.40;;
60730;SDS011;46580;52.114;11.674;2024-02-04T08:16:43;5.97;;;3.57;;
60730;SDS011;46580;52.114;11.674;2024-02-04T08:19:11;6.10;;;4.00;;
60730;SDS011;46580;52.114;11.674;2024-02-04T08:21:37;7.43;;;3.43;;
60730;SDS011;46580;52.114;11.674;2024-02-04T08:24:03;7.67;;;2.80;;
60730;SDS011;46580;52.114;11.674;2024-02-04T08:26:29;4.93;;;3.53;;
60730;SDS011;46580;52.114;11.674;2024-02-04T08:28:54;6.77;;;3.10;;
60730;SDS011;46580;52.114;11.674;2024-02-04T08:31:20;5.57;;;3.30;;
60730;SDS011;46580;52.114;11.674;2024-02-04T08:33:46;5.90;;;3.20;;
60730;SDS011;46580;52.114;11.674;2024-02-04T08:36:12;10.97;;;3.57;;
60730;SDS011;46580;52.114;11.674;2024-02-04T08:38:38;4.63;;;2.83;;
60730;SDS011;46580;52.114;11.674;2024-02-04T08:41:04;4.97;;;3.33;;
60730;SDS011;46580;52.114;11.674;2024-02-04T08:43:30;8.10;;;3.13;;
60730;SDS011;46580;52.114;11.674;2024-02-04T08:45:56;3.57;;;2.87;;
60730;SDS011;46580;52.114;11.674;2024-02-04T08:48:21;5.10;;;2.67;;
60730;SDS011;46580;52.114;11.674;2024-02-04T08:50:47;4.93;;;2.37;;
60730;SDS011;46580;52.114;11.674;2024-02-04T08:53:12;3.27;;;2.40;;
60730;SDS011;46580;52.114;11.674;2024-02-04T08:55:38;3.77;;;2.37;;
60730;SDS011;46580;52.114;11.674;2024-02-04T08:58:04;4.50;;;2.27;;
60730;SDS011;46580;52.114;11.674;2024-02-04T09:00:30;5.10;;;1.77;;
60730;SDS011;46580;52.114;11.674;2024-02-04T09:02:56;5.27;;;1.70;;
60730;SDS011;46580;52.114;11.674;2024-02-04T09:05:22;4.23;;;1.80;;
60730;SDS011;46580;52.114;11.674;2024-02-04T09:07:48;2.33;;;1.27;;
60730;SDS011;46580;52.114;11.674;2024-02-04T09:10:14;4.00;;;1.33;;
60730;SDS011;46580;52.114;11.674;2024-02-04T09:12:40;2.87;;;1.40;;
60730;SDS011;46580;52.114;11.674;2024-02-04T09:15:06;4.03;;;1.10;;
60730;SDS011;46580;52.114;11.674;2024-02-04T09:17:33;1.63;;;0.90;;
60730;SDS011;46580;52.114;11.674;2024-02-04T09:19:59;1.90;;;1.00;;
60730;SDS011;46580;52.114;11.674;2024-02-04T09:22:24;2.40;;;0.97;;
60730;SDS011;46580;52.114;11.674;2024-02-04T09:24:50;1.37;;;0.73;;
60730;SDS011;46580;52.114;11.674;2024-02-04T09:27:16;1.97;;;0.83;;
60730;SDS011;46580;52.114;11.674;2024-02-04T09:29:42;2.90;;;1.20;;
60730;SDS011;46580;52.114;11.674;2024-02-04T09:32:08;3.53;;;1.43;;
60730;SDS011;46580;52.114;11.674;2024-02-04T09:34:34;1.10;;;0.93;;
60730;SDS011;46580;52.114;11.674;2024-02-04T09:37:00;2.17;;;1.00;;
60730;SDS011;46580;52.114;11.674;2024-02-04T09:39:27;2.63;;;0.90;;
60730;SDS011;46580;52.114;11.674;2024-02-04T09:41:55;1.30;;;0.73;;
60730;SDS011;46580;52.114;11.674;2024-02-04T09:44:22;2.67;;;0.93;;
60730;SDS011;46580;52.114;11.674;2024-02-04T09:46:49;3.50;;;1.03;;
60730;SDS011;46580;52.114;11.674;2024-02-04T09:49:17;3.37;;;0.90;;
60730;SDS011;46580;52.114;11.674;2024-02-04T09:51:43;2.03;;;0.80;;
60730;SDS011;46580;52.114;11.674;2024-02-04T09:54:09;0.63;;;0.50;;
60730;SDS011;46580;52.114;11.674;2024-02-04T09:56:36;2.80;;;1.43;;
60730;SDS011;46580;52.114;11.674;2024-02-04T09:59:04;0.80;;;0.40;;
60730;SDS011;46580;52.114;11.674;2024-02-04T10:01:33;1.20;;;0.80;;
60730;SDS011;46580;52.114;11.674;2024-02-04T10:04:01;1.47;;;0.60;;
60730;SDS011;46580;52.114;11.674;2024-02-04T10:06:28;2.70;;;1.23;;
60730;SDS011;46580;52.114;11.674;2024-02-04T10:08:54;2.57;;;0.83;;
60730;SDS011;46580;52.114;11.674;2024-02-04T10:11:20;5.23;;;1.03;;
60730;SDS011;46580;52.114;11.674;2024-02-04T10:13:48;1.97;;;0.67;;
60730;SDS011;46580;52.114;11.674;2024-02-04T10:16:15;1.87;;;0.70;;
60730;SDS011;46580;52.114;11.674;2024-02-04T10:18:41;2.40;;;0.60;;
60730;SDS011;46580;52.114;11.674;2024-02-04T10:21:41;3.00;;;0.90;;
60730;SDS011;46580;52.114;11.674;2024-02-04T10:24:00;0.87;;;0.60;;
60730;SDS011;46580;52.114;11.674;2024-02-04T10:26:29;4.50;;;0.50;;
60730;SDS011;46580;52.114;11.674;2024-02-04T10:28:59;0.77;;;0.50;;
60730;SDS011;46580;52.114;11.674;2024-02-04T10:31:26;0.83;;;0.50;;
60730;SDS011;46580;52.114;11.674;2024-02-04T10:33:52;3.17;;;0.67;;
60730;SDS011;46580;52.114;11.674;2024-02-04T10:36:25;3.37;;;0.73;;
60730;SDS011;46580;52.114;11.674;2024-02-04T10:38:52;2.10;;;0.60;;
60730;SDS011;46580;52.114;11.674;2024-02-04T10:41:18;5.40;;;0.60;;
60730;SDS011;46580;52.114;11.674;2024-02-04T10:43:44;2.07;;;0.70;;
60730;SDS011;46580;52.114;11.674;2024-02-04T10:46:17;1.43;;;0.50;;
60730;SDS011;46580;52.114;11.674;2024-02-04T10:49:21;6.50;;;0.83;;
60730;SDS011;46580;52.114;11.674;2024-02-04T10:51:41;6.50;;;1.30;;
60730;SDS011;46580;52.114;11.674;2024-02-04T10:54:08;1.30;;;0.60;;
60730;SDS011;46580;52.114;11.674;2024-02-04T10:56:44;2.37;;;0.90;;
60730;SDS011;46580;52.114;11.674;2024-02-04T10:59:11;2.83;;;0.70;;
60730;SDS011;46580;52.114;11.674;2024-02-04T11:01:43;3.57;;;0.90;;
60730;SDS011;46580;52.114;11.674;2024-02-04T11:04:09;5.83;;;1.00;;
60730;SDS011;46580;52.114;11.674;2024-02-04T11:06:37;6.20;;;1.00;;
60730;SDS011;46580;52.114;11.674;2024-02-04T11:09:06;3.83;;;1.00;;
60730;SDS011;46580;52.114;11.674;2024-02-04T11:11:34;2.30;;;1.00;;
60730;SDS011;46580;52.114;11.674;2024-02-04T11:14:02;3.73;;;1.33;;
60730;SDS011;46580;52.114;11.674;2024-02-04T11:27:34;2.70;;;1.03;;
60730;SDS011;46580;52.114;11.674;2024-02-04T11:30:00;4.67;;;1.17;;
60730;SDS011;46580;52.114;11.674;2024-02-04T11:32:26;2.40;;;0.80;;
60730;SDS011;46580;52.114;11.674;2024-02-04T11:34:52;3.43;;;0.77;;
60730;SDS011;46580;52.114;11.674;2024-02-04T11:37:20;3.67;;;1.13;;
60730;SDS011;46580;52.114;11.674;2024-02-04T11:39:49;6.33;;;1.13;;
60730;SDS011;46580;52.114;11.674;2024-02-04T11:42:15;3.93;;;1.27;;
60730;SDS011;46580;52.114;11.674;2024-02-04T11:44:43;1.20;;;0.80;;
60730;SDS011;46580;52.114;11.674;2024-02-04T11:47:09;3.80;;;1.27;;
60730;SDS011;46580;52.114;11.674;2024-02-04T11:49:34;2.07;;;1.00;;
60730;SDS011;46580;52.114;11.674;2024-02-04T11:51:59;5.33;;;1.77;;
60730;SDS011;46580;52.114;11.674;2024-02-04T11:54:26;3.70;;;1.23;;
60730;SDS011;46580;52.114;11.674;2024-02-04T11:56:51;3.93;;;1.27;;
60730;SDS011;46580;52.114;11.674;2024-02-04T11:59:25;3.37;;;1.43;;
60730;SDS011;46580;52.114;11.674;2024-02-04T12:01:56;4.03;;;1.23;;
60730;SDS011;46580;52.114;11.674;2024-02-04T12:04:22;4.10;;;1.17;;
60730;SDS011;46580;52.114;11.674;2024-02-04T12:06:48;4.93;;;0.90;;
60730;SDS011;46580;52.114;11.674;2024-02-04T12:09:16;3.13;;;0.83;;
60730;SDS011;46580;52.114;11.674;2024-02-04T12:11:47;6.77;;;1.60;;
60730;SDS011;46580;52.114;11.674;2024-02-04T12:14:12;2.10;;;0.87;;
60730;SDS011;46580;52.114;11.674;2024-02-04T12:16:39;4.47;;;1.33;;
60730;SDS011;46580;52.114;11.674;2024-02-04T12:19:05;3.97;;;1.20;;
60730;SDS011;46580;52.114;11.674;2024-02-04T12:21:30;1.90;;;0.90;;
60730;SDS011;46580;52.114;11.674;2024-02-04T12:23:57;3.63;;;1.50;;
60730;SDS011;46580;52.114;11.674;2024-02-04T12:26:23;5.57;;;1.13;;
60730;SDS011;46580;52.114;11.674;2024-02-04T12:28:52;6.63;;;1.40;;
60730;SDS011;46580;52.114;11.674;2024-02-04T12:31:24;2.43;;;1.20;;
60730;SDS011;46580;52.114;11.674;2024-02-04T12:33:54;1.27;;;0.63;;
60730;SDS011;46580;52.114;11.674;2024-02-04T12:36:23;7.60;;;1.50;;
60730;SDS011;46580;52.114;11.674;2024-02-04T12:38:53;3.73;;;1.17;;
60730;SDS011;46580;52.114;11.674;2024-02-04T12:41:22;5.30;;;0.93;;
60730;SDS011;46580;52.114;11.674;2024-02-04T12:43:58;2.13;;;1.10;;
60730;SDS011;46580;52.114;11.674;2024-02-04T12:46:25;4.33;;;1.13;;
60730;SDS011;46580;52.114;11.674;2024-02-04T12:48:54;5.03;;;1.20;;
60730;SDS011;46580;52.114;11.674;2024-02-04T12:51:38;5.43;;;1.30;;
60730;SDS011;46580;52.114;11.674;2024-02-04T12:54:06;4.63;;;1.13;;
60730;SDS011;46580;52.114;11.674;2024-02-04T12:56:40;5.10;;;1.10;;
60730;SDS011;46580;52.114;11.674;2024-02-04T12:59:06;5.23;;;1.33;;
60730;SDS011;46580;52.114;11.674;2024-02-04T13:01:31;5.63;;;1.20;;
60730;SDS011;46580;52.114;11.674;2024-02-04T13:03:57;7.17;;;1.60;;
60730;SDS011;46580;52.114;11.674;2024-02-04T13:06:22;3.77;;;1.03;;
60730;SDS011;46580;52.114;11.674;2024-02-04T13:08:48;6.30;;;1.10;;
60730;SDS011;46580;52.114;11.674;2024-02-04T13:11:19;2.60;;;1.20;;
60730;SDS011;46580;52.114;11.674;2024-02-04T13:13:44;4.07;;;1.17;;
60730;SDS011;46580;52.114;11.674;2024-02-04T13:16:21;4.83;;;1.10;;
60730;SDS011;46580;52.114;11.674;2024-02-04T13:18:52;5.77;;;1.43;;
60730;SDS011;46580;52.114;11.674;2024-02-04T13:21:19;2.47;;;1.07;;
60730;SDS011;46580;52.114;11.674;2024-02-04T13:23:46;3.27;;;1.37;;
60730;SDS011;46580;52.114;11.674;2024-02-04T13:26:13;4.90;;;1.17;;
60730;SDS011;46580;52.114;11.674;2024-02-04T13:28:39;2.07;;;0.90;;
60730;SDS011;46580;52.114;11.674;2024-02-04T13:31:05;5.23;;;1.13;;
60730;SDS011;46580;52.114;11.674;2024-02-04T13:33:30;3.27;;;1.00;;
60730;SDS011;46580;52.114;11.674;2024-02-04T13:35:56;4.50;;;1.00;;
60730;SDS011;46580;52.114;11.674;2024-02-04T13:38:22;5.07;;;1.00;;
60730;SDS011;46580;52.114;11.674;2024-02-04T13:40:47;5.70;;;1.13;;
60730;SDS011;46580;52.114;11.674;2024-02-04T13:43:13;3.23;;;0.93;;
60730;SDS011;46580;52.114;11.674;2024-02-04T13:45:38;8.33;;;1.40;;
60730;SDS011;46580;52.114;11.674;2024-02-04T13:48:05;2.50;;;0.80;;
60730;SDS011;46580;52.114;11.674;2024-02-04T13:50:30;1.73;;;0.77;;
60730;SDS011;46580;52.114;11.674;2024-02-04T13:52:56;3.17;;;0.90;;
60730;SDS011;46580;52.114;11.674;2024-02-04T13:55:24;1.67;;;0.50;;
60730;SDS011;46580;52.114;11.674;2024-02-04T13:57:49;3.10;;;0.73;;
60730;SDS011;46580;52.114;11.674;2024-02-04T14:00:15;1.50;;;1.07;;
60730;SDS011;46580;52.114;11.674;2024-02-04T14:02:42;3.53;;;1.07;;
60730;SDS011;46580;52.114;11.674;2024-02-04T14:05:09;3.50;;;0.70;;
60730;SDS011;46580;52.114;11.674;2024-02-04T14:07:36;2.53;;;0.80;;
60730;SDS011;46580;52.114;11.674;2024-02-04T14:10:04;5.60;;;1.13;;
60730;SDS011;46580;52.114;11.674;2024-02-04T14:12:29;1.60;;;1.27;;
60730;SDS011;46580;52.114;11.674;2024-02-04T14:14:56;1.00;;;0.77;;
60730;SDS011;46580;52.114;11.674;2024-02-04T14:17:22;4.20;;;0.80;;
60730;SDS011;46580;52.114;11.674;2024-02-04T14:19:49;3.97;;;0.93;;
60730;SDS011;46580;52.114;11.674;2024-02-04T14:22:16;6.83;;;1.40;;
60730;SDS011;46580;52.114;11.674;2024-02-04T14:24:43;4.27;;;0.80;;
60730;SDS011;46580;52.114;11.674;2024-02-04T14:27:10;1.97;;;0.83;;
60730;SDS011;46580;52.114;11.674;2024-02-04T14:29:37;3.23;;;1.00;;
60730;SDS011;46580;52.114;11.674;2024-02-04T14:32:02;5.17;;;1.00;;
60730;SDS011;46580;52.114;11.674;2024-02-04T14:34:28;3.90;;;1.10;;
60730;SDS011;46580;52.114;11.674;2024-02-04T14:36:53;2.73;;;1.00;;
60730;SDS011;46580;52.114;11.674;2024-02-04T14:39:19;2.17;;;0.83;;
60730;SDS011;46580;52.114;11.674;2024-02-04T14:41:45;3.40;;;0.90;;
60730;SDS011;46580;52.114;11.674;2024-02-04T14:44:10;3.87;;;0.77;;